Terminal Aerodrome Forecast
Issued by NWS Omaha/Valley, NE

Home | Current Version | Previous Version | Text Only | Print | Product List | Glossary On
Versions: 1 2 3 4 5 6 7 8 9 10 11 12 13 14 15 16 17 18 19 20 21 22 23 24 25 26 27 28 29 30 31 32 33 34 35 36 37
000
FTUS43 KOAX 111121 CCA
TAFLNK
TAF COR
KLNK 111121Z 1112/1212 03007KT P6SM SCT012 OVC035
      TEMPO 1112/1113 OVC012
     FM111300 05006KT P6SM OVC012
      TEMPO 1113/1117 07006KT BKN007
     FM111700 15008KT P6SM OVC015
     FM120500 VRB06KT P6SM SCT020 BKN050
      TEMPO 1208/1212 35011KT BKN020=

USA.gov is the U.S. government's official web portal to all federal, state and local government web resources and services.